sensor_id;sensor_type;location;lat;lon;timestamp;P1;durP1;ratioP1;P2;durP2;ratioP2
75997;SDS011;64685;48.762;44.822;2023-04-24T00:04:53;27.10;;;12.60;;
75997;SDS011;64685;48.762;44.822;2023-04-24T00:09:55;36.47;;;16.75;;
75997;SDS011;64685;48.762;44.822;2023-04-24T00:14:58;33.50;;;17.83;;
75997;SDS011;64685;48.762;44.822;2023-04-24T00:20:00;39.47;;;18.55;;
75997;SDS011;64685;48.762;44.822;2023-04-24T00:25:06;37.70;;;18.48;;
75997;SDS011;64685;48.762;44.822;2023-04-24T00:30:09;42.72;;;19.67;;
75997;SDS011;64685;48.762;44.822;2023-04-24T00:35:12;79.32;;;37.17;;
75997;SDS011;64685;48.762;44.822;2023-04-24T00:40:14;69.63;;;33.38;;
75997;SDS011;64685;48.762;44.822;2023-04-24T00:45:17;63.30;;;29.20;;
75997;SDS011;64685;48.762;44.822;2023-04-24T00:50:20;58.42;;;28.98;;
75997;SDS011;64685;48.762;44.822;2023-04-24T00:55:24;51.10;;;25.60;;
75997;SDS011;64685;48.762;44.822;2023-04-24T01:00:28;46.10;;;21.50;;
75997;SDS011;64685;48.762;44.822;2023-04-24T01:05:30;42.63;;;20.85;;
75997;SDS011;64685;48.762;44.822;2023-04-24T01:10:33;44.67;;;22.20;;
75997;SDS011;64685;48.762;44.822;2023-04-24T01:15:38;45.78;;;21.48;;
75997;SDS011;64685;48.762;44.822;2023-04-24T01:20:42;43.50;;;20.60;;
75997;SDS011;64685;48.762;44.822;2023-04-24T01:25:46;39.67;;;17.70;;
75997;SDS011;64685;48.762;44.822;2023-04-24T01:30:50;41.47;;;18.75;;
75997;SDS011;64685;48.762;44.822;2023-04-24T01:35:57;38.47;;;18.13;;
75997;SDS011;64685;48.762;44.822;2023-04-24T01:40:59;39.03;;;16.38;;
75997;SDS011;64685;48.762;44.822;2023-04-24T01:46:02;31.55;;;16.08;;
75997;SDS011;64685;48.762;44.822;2023-04-24T01:51:05;31.55;;;14.20;;
75997;SDS011;64685;48.762;44.822;2023-04-24T01:56:07;33.47;;;13.98;;
75997;SDS011;64685;48.762;44.822;2023-04-24T02:01:14;28.55;;;13.20;;
75997;SDS011;64685;48.762;44.822;2023-04-24T02:06:22;29.08;;;12.23;;
75997;SDS011;64685;48.762;44.822;2023-04-24T02:11:27;24.67;;;12.35;;
75997;SDS011;64685;48.762;44.822;2023-04-24T02:16:29;24.63;;;12.65;;
75997;SDS011;64685;48.762;44.822;2023-04-24T02:21:34;25.40;;;12.00;;
75997;SDS011;64685;48.762;44.822;2023-04-24T02:26:36;28.38;;;12.38;;
75997;SDS011;64685;48.762;44.822;2023-04-24T02:31:39;27.95;;;12.52;;
75997;SDS011;64685;48.762;44.822;2023-04-24T02:36:41;25.90;;;11.30;;
75997;SDS011;64685;48.762;44.822;2023-04-24T02:41:44;26.85;;;12.93;;
75997;SDS011;64685;48.762;44.822;2023-04-24T02:46:46;23.55;;;10.73;;
75997;SDS011;64685;48.762;44.822;2023-04-24T02:51:48;23.90;;;11.38;;
75997;SDS011;64685;48.762;44.822;2023-04-24T02:56:51;22.92;;;10.93;;
75997;SDS011;64685;48.762;44.822;2023-04-24T03:01:53;24.75;;;12.20;;
75997;SDS011;64685;48.762;44.822;2023-04-24T03:06:56;22.75;;;10.13;;
75997;SDS011;64685;48.762;44.822;2023-04-24T03:11:58;22.42;;;10.38;;
75997;SDS011;64685;48.762;44.822;2023-04-24T03:17:01;22.45;;;10.50;;
75997;SDS011;64685;48.762;44.822;2023-04-24T03:22:03;22.70;;;9.70;;
75997;SDS011;64685;48.762;44.822;2023-04-24T03:27:07;22.27;;;11.02;;
75997;SDS011;64685;48.762;44.822;2023-04-24T03:32:31;22.52;;;10.82;;
75997;SDS011;64685;48.762;44.822;2023-04-24T03:37:34;19.85;;;9.57;;
75997;SDS011;64685;48.762;44.822;2023-04-24T03:42:57;21.60;;;9.90;;
75997;SDS011;64685;48.762;44.822;2023-04-24T03:48:00;20.55;;;10.18;;
75997;SDS011;64685;48.762;44.822;2023-04-24T03:53:04;28.00;;;13.20;;
75997;SDS011;64685;48.762;44.822;2023-04-24T03:58:11;23.00;;;11.63;;
75997;SDS011;64685;48.762;44.822;2023-04-24T04:03:15;27.40;;;12.77;;
75997;SDS011;64685;48.762;44.822;2023-04-24T04:08:18;26.05;;;12.52;;
75997;SDS011;64685;48.762;44.822;2023-04-24T04:13:22;21.80;;;9.98;;
75997;SDS011;64685;48.762;44.822;2023-04-24T04:18:25;21.67;;;8.82;;
75997;SDS011;64685;48.762;44.822;2023-04-24T04:23:28;19.25;;;7.93;;
75997;SDS011;64685;48.762;44.822;2023-04-24T04:28:47;17.05;;;7.60;;
75997;SDS011;64685;48.762;44.822;2023-04-24T04:33:51;16.75;;;6.75;;
75997;SDS011;64685;48.762;44.822;2023-04-24T04:38:53;17.80;;;7.32;;
75997;SDS011;64685;48.762;44.822;2023-04-24T04:44:16;23.15;;;9.15;;
75997;SDS011;64685;48.762;44.822;2023-04-24T04:49:19;18.05;;;8.40;;
75997;SDS011;64685;48.762;44.822;2023-04-24T04:54:24;15.82;;;7.55;;
75997;SDS011;64685;48.762;44.822;2023-04-24T04:59:27;14.27;;;6.65;;
75997;SDS011;64685;48.762;44.822;2023-04-24T05:04:37;18.55;;;8.15;;
75997;SDS011;64685;48.762;44.822;2023-04-24T05:09:39;14.07;;;6.50;;
75997;SDS011;64685;48.762;44.822;2023-04-24T05:14:43;16.48;;;7.57;;
75997;SDS011;64685;48.762;44.822;2023-04-24T05:19:47;14.88;;;6.22;;
75997;SDS011;64685;48.762;44.822;2023-04-24T05:30:22;17.33;;;6.97;;
75997;SDS011;64685;48.762;44.822;2023-04-24T05:35:25;15.25;;;7.43;;
75997;SDS011;64685;48.762;44.822;2023-04-24T05:40:27;12.23;;;6.28;;
75997;SDS011;64685;48.762;44.822;2023-04-24T05:45:31;12.57;;;6.10;;
75997;SDS011;64685;48.762;44.822;2023-04-24T05:50:52;12.35;;;5.40;;
75997;SDS011;64685;48.762;44.822;2023-04-24T05:55:55;11.30;;;5.70;;
75997;SDS011;64685;48.762;44.822;2023-04-24T06:00:58;4.72;;;2.38;;
75997;SDS011;64685;48.762;44.822;2023-04-24T06:06:03;4.47;;;2.08;;
75997;SDS011;64685;48.762;44.822;2023-04-24T06:11:07;5.30;;;2.13;;
75997;SDS011;64685;48.762;44.822;2023-04-24T06:16:12;3.88;;;1.83;;
75997;SDS011;64685;48.762;44.822;2023-04-24T06:21:19;5.35;;;2.15;;
75997;SDS011;64685;48.762;44.822;2023-04-24T06:26:22;4.03;;;1.60;;
75997;SDS011;64685;48.762;44.822;2023-04-24T06:31:27;3.80;;;1.77;;
75997;SDS011;64685;48.762;44.822;2023-04-24T06:36:29;3.55;;;1.73;;
75997;SDS011;64685;48.762;44.822;2023-04-24T06:41:33;3.88;;;1.70;;
75997;SDS011;64685;48.762;44.822;2023-04-24T06:46:35;4.22;;;1.70;;
75997;SDS011;64685;48.762;44.822;2023-04-24T06:51:39;2.30;;;1.50;;
75997;SDS011;64685;48.762;44.822;2023-04-24T06:56:41;6.10;;;1.65;;
75997;SDS011;64685;48.762;44.822;2023-04-24T07:01:44;5.15;;;1.60;;
75997;SDS011;64685;48.762;44.822;2023-04-24T07:06:47;4.75;;;1.88;;
75997;SDS011;64685;48.762;44.822;2023-04-24T07:11:53;3.72;;;1.85;;
75997;SDS011;64685;48.762;44.822;2023-04-24T07:16:58;5.22;;;1.73;;
75997;SDS011;64685;48.762;44.822;2023-04-24T07:22:00;4.22;;;1.33;;
75997;SDS011;64685;48.762;44.822;2023-04-24T07:27:04;5.28;;;1.63;;
75997;SDS011;64685;48.762;44.822;2023-04-24T07:32:06;3.95;;;1.40;;
75997;SDS011;64685;48.762;44.822;2023-04-24T07:42:12;2.78;;;1.60;;
75997;SDS011;64685;48.762;44.822;2023-04-24T07:47:15;6.18;;;1.80;;
75997;SDS011;64685;48.762;44.822;2023-04-24T07:52:17;3.08;;;1.15;;
75997;SDS011;64685;48.762;44.822;2023-04-24T07:57:20;3.63;;;1.60;;
75997;SDS011;64685;48.762;44.822;2023-04-24T08:02:22;5.28;;;2.17;;
75997;SDS011;64685;48.762;44.822;2023-04-24T08:07:28;4.75;;;2.08;;
75997;SDS011;64685;48.762;44.822;2023-04-24T08:12:31;4.10;;;2.10;;
75997;SDS011;64685;48.762;44.822;2023-04-24T08:17:34;5.00;;;2.42;;
75997;SDS011;64685;48.762;44.822;2023-04-24T08:22:37;5.07;;;2.00;;
75997;SDS011;64685;48.762;44.822;2023-04-24T08:27:39;2.80;;;1.45;;
75997;SDS011;64685;48.762;44.822;2023-04-24T08:32:42;3.67;;;1.38;;
75997;SDS011;64685;48.762;44.822;2023-04-24T08:37:45;2.85;;;1.17;;
75997;SDS011;64685;48.762;44.822;2023-04-24T08:42:48;4.85;;;1.35;;
75997;SDS011;64685;48.762;44.822;2023-04-24T08:47:54;4.25;;;1.52;;
75997;SDS011;64685;48.762;44.822;2023-04-24T08:52:57;4.63;;;1.73;;
75997;SDS011;64685;48.762;44.822;2023-04-24T08:58:00;3.05;;;1.80;;
75997;SDS011;64685;48.762;44.822;2023-04-24T09:03:03;4.00;;;1.48;;
75997;SDS011;64685;48.762;44.822;2023-04-24T09:08:08;3.05;;;1.42;;
75997;SDS011;64685;48.762;44.822;2023-04-24T09:13:12;5.50;;;3.30;;
75997;SDS011;64685;48.762;44.822;2023-04-24T09:23:18;3.45;;;1.17;;
75997;SDS011;64685;48.762;44.822;2023-04-24T09:28:25;4.30;;;1.20;;
75997;SDS011;64685;48.762;44.822;2023-04-24T09:33:58;2.75;;;1.27;;
75997;SDS011;64685;48.762;44.822;2023-04-24T09:39:13;3.95;;;1.45;;
75997;SDS011;64685;48.762;44.822;2023-04-24T09:49:24;2.55;;;1.08;;
75997;SDS011;64685;48.762;44.822;2023-04-24T09:54:30;2.70;;;1.27;;
75997;SDS011;64685;48.762;44.822;2023-04-24T09:59:33;3.25;;;1.15;;
75997;SDS011;64685;48.762;44.822;2023-04-24T10:04:38;4.63;;;0.88;;
75997;SDS011;64685;48.762;44.822;2023-04-24T10:09:40;3.22;;;1.20;;
75997;SDS011;64685;48.762;44.822;2023-04-24T10:14:43;5.20;;;1.30;;
75997;SDS011;64685;48.762;44.822;2023-04-24T10:19:49;2.28;;;1.15;;
75997;SDS011;64685;48.762;44.822;2023-04-24T10:24:52;1.90;;;1.00;;
75997;SDS011;64685;48.762;44.822;2023-04-24T10:29:54;5.68;;;1.10;;
75997;SDS011;64685;48.762;44.822;2023-04-24T10:34:57;3.70;;;1.45;;
75997;SDS011;64685;48.762;44.822;2023-04-24T10:39:59;2.33;;;0.82;;
75997;SDS011;64685;48.762;44.822;2023-04-24T10:45:06;3.88;;;1.10;;
75997;SDS011;64685;48.762;44.822;2023-04-24T10:50:11;1.25;;;0.90;;
75997;SDS011;64685;48.762;44.822;2023-04-24T10:55:14;2.55;;;1.23;;
75997;SDS011;64685;48.762;44.822;2023-04-24T11:00:20;2.88;;;1.20;;
75997;SDS011;64685;48.762;44.822;2023-04-24T11:05:49;3.78;;;1.40;;
75997;SDS011;64685;48.762;44.822;2023-04-24T11:16:21;5.90;;;2.03;;
75997;SDS011;64685;48.762;44.822;2023-04-24T11:21:44;4.78;;;1.65;;
75997;SDS011;64685;48.762;44.822;2023-04-24T11:26:50;5.18;;;1.80;;
75997;SDS011;64685;48.762;44.822;2023-04-24T11:31:55;4.15;;;1.15;;
75997;SDS011;64685;48.762;44.822;2023-04-24T11:36:59;5.28;;;1.42;;
75997;SDS011;64685;48.762;44.822;2023-04-24T11:42:02;2.20;;;1.10;;
75997;SDS011;64685;48.762;44.822;2023-04-24T11:47:05;2.92;;;1.38;;
75997;SDS011;64685;48.762;44.822;2023-04-24T11:52:11;3.33;;;1.52;;
75997;SDS011;64685;48.762;44.822;2023-04-24T11:57:20;3.67;;;1.60;;
75997;SDS011;64685;48.762;44.822;2023-04-24T12:02:25;4.05;;;1.88;;
75997;SDS011;64685;48.762;44.822;2023-04-24T12:07:29;4.25;;;1.85;;
75997;SDS011;64685;48.762;44.822;2023-04-24T12:12:31;6.25;;;1.45;;
75997;SDS011;64685;48.762;44.822;2023-04-24T12:17:34;3.83;;;1.80;;
75997;SDS011;64685;48.762;44.822;2023-04-24T12:22:45;5.18;;;2.03;;
75997;SDS011;64685;48.762;44.822;2023-04-24T12:28:22;4.88;;;2.30;;
75997;SDS011;64685;48.762;44.822;2023-04-24T12:33:17;5.22;;;1.27;;
75997;SDS011;64685;48.762;44.822;2023-04-24T12:38:22;4.20;;;1.63;;
75997;SDS011;64685;48.762;44.822;2023-04-24T12:43:26;4.25;;;1.23;;
75997;SDS011;64685;48.762;44.822;2023-04-24T12:48:28;4.53;;;1.25;;
75997;SDS011;64685;48.762;44.822;2023-04-24T12:53:32;5.90;;;1.40;;
75997;SDS011;64685;48.762;44.822;2023-04-24T12:58:34;6.07;;;1.70;;
75997;SDS011;64685;48.762;44.822;2023-04-24T13:03:37;3.35;;;1.20;;
75997;SDS011;64685;48.762;44.822;2023-04-24T13:08:39;4.47;;;1.30;;
75997;SDS011;64685;48.762;44.822;2023-04-24T13:13:42;6.25;;;1.45;;
75997;SDS011;64685;48.762;44.822;2023-04-24T13:18:45;5.18;;;2.25;;
75997;SDS011;64685;48.762;44.822;2023-04-24T13:23:47;5.18;;;1.83;;
75997;SDS011;64685;48.762;44.822;2023-04-24T13:28:49;4.47;;;1.50;;
75997;SDS011;64685;48.762;44.822;2023-04-24T13:33:52;3.30;;;1.50;;
75997;SDS011;64685;48.762;44.822;2023-04-24T13:38:54;2.65;;;1.50;;
75997;SDS011;64685;48.762;44.822;2023-04-24T13:43:56;3.97;;;1.27;;
75997;SDS011;64685;48.762;44.822;2023-04-24T13:48:59;3.33;;;1.45;;
75997;SDS011;64685;48.762;44.822;2023-04-24T13:54:02;4.03;;;1.20;;
75997;SDS011;64685;48.762;44.822;2023-04-24T13:59:04;3.30;;;1.30;;
75997;SDS011;64685;48.762;44.822;2023-04-24T14:04:07;3.40;;;1.17;;
75997;SDS011;64685;48.762;44.822;2023-04-24T14:09:10;5.10;;;1.80;;
75997;SDS011;64685;48.762;44.822;2023-04-24T14:14:12;4.95;;;1.60;;
75997;SDS011;64685;48.762;44.822;2023-04-24T14:19:15;5.05;;;1.88;;
75997;SDS011;64685;48.762;44.822;2023-04-24T14:24:18;2.00;;;1.08;;
75997;SDS011;64685;48.762;44.822;2023-04-24T14:29:20;2.50;;;1.08;;
75997;SDS011;64685;48.762;44.822;2023-04-24T14:34:23;4.90;;;1.50;;
75997;SDS011;64685;48.762;44.822;2023-04-24T14:39:25;6.38;;;1.65;;
75997;SDS011;64685;48.762;44.822;2023-04-24T14:44:28;3.33;;;1.30;;
75997;SDS011;64685;48.762;44.822;2023-04-24T14:49:30;3.97;;;1.25;;
75997;SDS011;64685;48.762;44.822;2023-04-24T14:54:32;4.22;;;1.38;;
75997;SDS011;64685;48.762;44.822;2023-04-24T14:59:35;4.00;;;1.20;;
75997;SDS011;64685;48.762;44.822;2023-04-24T15:04:37;3.35;;;1.40;;
75997;SDS011;64685;48.762;44.822;2023-04-24T15:09:40;2.38;;;1.10;;
75997;SDS011;64685;48.762;44.822;2023-04-24T15:14:43;2.63;;;1.35;;
75997;SDS011;64685;48.762;44.822;2023-04-24T15:19:45;3.47;;;1.73;;
75997;SDS011;64685;48.762;44.822;2023-04-24T15:24:48;2.72;;;1.05;;
75997;SDS011;64685;48.762;44.822;2023-04-24T15:29:50;3.47;;;1.40;;
75997;SDS011;64685;48.762;44.822;2023-04-24T15:34:53;3.90;;;1.23;;
75997;SDS011;64685;48.762;44.822;2023-04-24T15:40:10;3.55;;;1.40;;
75997;SDS011;64685;48.762;44.822;2023-04-24T15:45:15;5.93;;;1.75;;
75997;SDS011;64685;48.762;44.822;2023-04-24T15:50:17;3.58;;;1.70;;
75997;SDS011;64685;48.762;44.822;2023-04-24T15:55:23;2.88;;;1.23;;
75997;SDS011;64685;48.762;44.822;2023-04-24T16:00:26;3.85;;;1.50;;
75997;SDS011;64685;48.762;44.822;2023-04-24T16:05:35;3.05;;;1.33;;
75997;SDS011;64685;48.762;44.822;2023-04-24T16:10:38;5.05;;;1.70;;
75997;SDS011;64685;48.762;44.822;2023-04-24T16:15:40;2.45;;;0.95;;
75997;SDS011;64685;48.762;44.822;2023-04-24T16:20:43;5.70;;;1.88;;
75997;SDS011;64685;48.762;44.822;2023-04-24T16:25:45;4.60;;;1.27;;
75997;SDS011;64685;48.762;44.822;2023-04-24T16:30:48;3.60;;;1.27;;
75997;SDS011;64685;48.762;44.822;2023-04-24T16:35:50;6.43;;;2.00;;
75997;SDS011;64685;48.762;44.822;2023-04-24T16:40:53;7.28;;;2.45;;
75997;SDS011;64685;48.762;44.822;2023-04-24T16:45:56;6.88;;;2.00;;
75997;SDS011;64685;48.762;44.822;2023-04-24T16:50:58;6.10;;;2.47;;
75997;SDS011;64685;48.762;44.822;2023-04-24T16:56:01;7.30;;;2.45;;
75997;SDS011;64685;48.762;44.822;2023-04-24T17:01:05;5.28;;;1.95;;
75997;SDS011;64685;48.762;44.822;2023-04-24T17:06:08;5.68;;;1.80;;
75997;SDS011;64685;48.762;44.822;2023-04-24T17:11:10;5.72;;;1.70;;
75997;SDS011;64685;48.762;44.822;2023-04-24T17:16:13;7.00;;;2.58;;
75997;SDS011;64685;48.762;44.822;2023-04-24T17:21:15;7.28;;;2.83;;
75997;SDS011;64685;48.762;44.822;2023-04-24T17:26:18;7.28;;;2.45;;
75997;SDS011;64685;48.762;44.822;2023-04-24T17:31:20;8.20;;;3.22;;
75997;SDS011;64685;48.762;44.822;2023-04-24T17:36:24;7.63;;;2.63;;
75997;SDS011;64685;48.762;44.822;2023-04-24T17:41:26;8.27;;;3.10;;
75997;SDS011;64685;48.762;44.822;2023-04-24T17:46:28;7.38;;;3.00;;
75997;SDS011;64685;48.762;44.822;2023-04-24T17:51:31;7.45;;;3.55;;
75997;SDS011;64685;48.762;44.822;2023-04-24T17:56:33;6.95;;;2.38;;
75997;SDS011;64685;48.762;44.822;2023-04-24T18:01:36;6.85;;;2.83;;
75997;SDS011;64685;48.762;44.822;2023-04-24T18:06:39;6.68;;;2.92;;
75997;SDS011;64685;48.762;44.822;2023-04-24T18:11:41;6.60;;;2.35;;
75997;SDS011;64685;48.762;44.822;2023-04-24T18:16:44;7.07;;;2.83;;
75997;SDS011;64685;48.762;44.822;2023-04-24T18:21:46;7.65;;;3.40;;
75997;SDS011;64685;48.762;44.822;2023-04-24T18:26:49;8.25;;;3.10;;
75997;SDS011;64685;48.762;44.822;2023-04-24T18:31:51;9.18;;;3.67;;
75997;SDS011;64685;48.762;44.822;2023-04-24T18:36:54;7.70;;;2.45;;
75997;SDS011;64685;48.762;44.822;2023-04-24T18:41:56;8.02;;;2.83;;
75997;SDS011;64685;48.762;44.822;2023-04-24T18:46:59;8.27;;;3.40;;
75997;SDS011;64685;48.762;44.822;2023-04-24T18:52:02;8.32;;;3.25;;
75997;SDS011;64685;48.762;44.822;2023-04-24T18:57:04;14.15;;;5.32;;
75997;SDS011;64685;48.762;44.822;2023-04-24T19:02:07;21.40;;;10.20;;
75997;SDS011;64685;48.762;44.822;2023-04-24T19:07:10;11.55;;;3.92;;
75997;SDS011;64685;48.762;44.822;2023-04-24T19:12:12;11.48;;;4.47;;
75997;SDS011;64685;48.762;44.822;2023-04-24T19:17:14;11.27;;;4.97;;
75997;SDS011;64685;48.762;44.822;2023-04-24T19:22:23;7.50;;;3.45;;
75997;SDS011;64685;48.762;44.822;2023-04-24T19:27:25;11.15;;;2.97;;
75997;SDS011;64685;48.762;44.822;2023-04-24T19:32:27;9.55;;;2.88;;
75997;SDS011;64685;48.762;44.822;2023-04-24T19:37:30;6.85;;;2.75;;
75997;SDS011;64685;48.762;44.822;2023-04-24T19:42:35;6.93;;;2.35;;
75997;SDS011;64685;48.762;44.822;2023-04-24T19:47:43;6.45;;;2.63;;
75997;SDS011;64685;48.762;44.822;2023-04-24T19:52:47;8.38;;;2.22;;
75997;SDS011;64685;48.762;44.822;2023-04-24T19:57:49;8.00;;;2.78;;
75997;SDS011;64685;48.762;44.822;2023-04-24T20:02:52;8.10;;;2.80;;
75997;SDS011;64685;48.762;44.822;2023-04-24T20:07:54;9.48;;;2.88;;
75997;SDS011;64685;48.762;44.822;2023-04-24T20:12:57;6.95;;;2.10;;
75997;SDS011;64685;48.762;44.822;2023-04-24T20:18:00;5.50;;;1.88;;
75997;SDS011;64685;48.762;44.822;2023-04-24T20:23:03;9.15;;;2.40;;
75997;SDS011;64685;48.762;44.822;2023-04-24T20:28:06;4.45;;;1.70;;
75997;SDS011;64685;48.762;44.822;2023-04-24T20:33:08;6.65;;;1.80;;
75997;SDS011;64685;48.762;44.822;2023-04-24T20:38:11;9.43;;;2.30;;
75997;SDS011;64685;48.762;44.822;2023-04-24T20:43:13;14.45;;;1.83;;
75997;SDS011;64685;48.762;44.822;2023-04-24T20:48:16;6.95;;;1.83;;
75997;SDS011;64685;48.762;44.822;2023-04-24T20:53:19;7.13;;;2.08;;
75997;SDS011;64685;48.762;44.822;2023-04-24T20:58:21;6.18;;;2.60;;
75997;SDS011;64685;48.762;44.822;2023-04-24T21:03:24;6.35;;;2.03;;
75997;SDS011;64685;48.762;44.822;2023-04-24T21:08:28;6.80;;;1.98;;
75997;SDS011;64685;48.762;44.822;2023-04-24T21:13:30;9.40;;;2.00;;
75997;SDS011;64685;48.762;44.822;2023-04-24T21:18:33;7.18;;;1.88;;
75997;SDS011;64685;48.762;44.822;2023-04-24T21:23:35;6.15;;;1.85;;
75997;SDS011;64685;48.762;44.822;2023-04-24T21:28:38;4.95;;;1.55;;
75997;SDS011;64685;48.762;44.822;2023-04-24T21:33:40;6.68;;;2.08;;
75997;SDS011;64685;48.762;44.822;2023-04-24T21:38:42;6.35;;;2.00;;
75997;SDS011;64685;48.762;44.822;2023-04-24T21:43:45;5.75;;;1.63;;
75997;SDS011;64685;48.762;44.822;2023-04-24T21:48:50;7.05;;;1.95;;
75997;SDS011;64685;48.762;44.822;2023-04-24T21:53:52;6.50;;;2.58;;
75997;SDS011;64685;48.762;44.822;2023-04-24T21:58:55;5.25;;;1.77;;
75997;SDS011;64685;48.762;44.822;2023-04-24T22:03:58;4.93;;;1.55;;
75997;SDS011;64685;48.762;44.822;2023-04-24T22:09:00;7.90;;;2.30;;
75997;SDS011;64685;48.762;44.822;2023-04-24T22:14:03;4.78;;;1.80;;
75997;SDS011;64685;48.762;44.822;2023-04-24T22:19:08;6.07;;;2.20;;
75997;SDS011;64685;48.762;44.822;2023-04-24T22:24:11;5.00;;;2.20;;
75997;SDS011;64685;48.762;44.822;2023-04-24T22:29:13;7.15;;;2.03;;
75997;SDS011;64685;48.762;44.822;2023-04-24T22:34:16;5.10;;;1.63;;
75997;SDS011;64685;48.762;44.822;2023-04-24T22:39:20;8.23;;;2.22;;
75997;SDS011;64685;48.762;44.822;2023-04-24T22:44:22;7.50;;;3.28;;
75997;SDS011;64685;48.762;44.822;2023-04-24T22:49:25;13.27;;;4.28;;
75997;SDS011;64685;48.762;44.822;2023-04-24T22:54:28;7.70;;;2.95;;
75997;SDS011;64685;48.762;44.822;2023-04-24T22:59:32;6.93;;;2.53;;
75997;SDS011;64685;48.762;44.822;2023-04-24T23:04:34;4.28;;;1.85;;
75997;SDS011;64685;48.762;44.822;2023-04-24T23:09:37;6.47;;;1.90;;
75997;SDS011;64685;48.762;44.822;2023-04-24T23:14:39;6.00;;;2.17;;
75997;SDS011;64685;48.762;44.822;2023-04-24T23:19:42;6.50;;;1.88;;
75997;SDS011;64685;48.762;44.822;2023-04-24T23:24:44;5.95;;;2.30;;
75997;SDS011;64685;48.762;44.822;2023-04-24T23:29:47;7.72;;;2.10;;
75997;SDS011;64685;48.762;44.822;2023-04-24T23:34:50;6.85;;;2.58;;
75997;SDS011;64685;48.762;44.822;2023-04-24T23:39:52;8.93;;;2.60;;
75997;SDS011;64685;48.762;44.822;2023-04-24T23:44:55;6.07;;;2.28;;
75997;SDS011;64685;48.762;44.822;2023-04-24T23:49:57;8.82;;;2.95;;
75997;SDS011;64685;48.762;44.822;2023-04-24T23:55:00;6.00;;;2.55;;
